Goderich, Canada
Current Conditions -  °F | °C
As of 7:00 PM on Wednesday 26 Nov 2014 (Local Time) from CYXU Reporting Station
Overcast Overcast  
Wind Chill: 26°   Ceiling: 4100
Heat Index: 32°   Visibility: 15mi
Dew Point: 27°   Wind: 7mph
Humidity: 80%   Direction: 50°NE
Pressure: 30.06"   Gusts: NA
Location:  43.74°N, 81.71°W
Report Text: CYXU 270000Z 05006KT 15SM OVC041 M00/M03 A3006 RMK SC8 SLP190
Loading
Personal Weather Stations






























Interactive Weather Map New forecast layout! Learn more

10-Day Weather Forecast

Advertisements
Track Severe Weather on mobile